Terminal Aerodrome Forecast
Issued by NWS Spokane, WA

Home | Current Version | Previous Version | Text Only | Print | Product List | Glossary On
Versions: 1 2 3 4 5 6 7 8 9 10 11 12 13 14 15 16 17 18 19 20 21 22 23 24 25 26 27 28 29 30
000
FTUS46 KOTX 301139
TAFLWS
TAF
KLWS 301139Z 3012/0112 VRB04KT P6SM VCSH BKN110
     FM302000 32006KT P6SM SCT100 SCT150
     FM302300 30008KT P6SM -SHRA BKN080 BKN120 BKN200 PROB30
      0100/0104 P6SM -TSRA BKN080CB BKN120=

USA.gov is the U.S. government's official web portal to all federal, state and local government web resources and services.